sensor_id;sensor_type;location;lat;lon;timestamp;pressure;altitude;pressure_sealevel;temperature;humidity
46756;BME280;32506;52.826;-1.192;2023-02-03T00:01:17;101885.44;;;9.51;63.53
46756;BME280;32506;52.826;-1.192;2023-02-03T00:03:42;101892.63;;;9.51;63.48
46756;BME280;32506;52.826;-1.192;2023-02-03T00:06:08;101884.75;;;9.49;63.80
46756;BME280;32506;52.826;-1.192;2023-02-03T00:08:35;101881.44;;;9.47;63.48
46756;BME280;32506;52.826;-1.192;2023-02-03T00:11:01;101878.97;;;9.46;63.72
46756;BME280;32506;52.826;-1.192;2023-02-03T00:13:27;101886.97;;;9.46;63.89
46756;BME280;32506;52.826;-1.192;2023-02-03T00:15:52;101883.63;;;9.44;63.87
46756;BME280;32506;52.826;-1.192;2023-02-03T00:18:18;101887.97;;;9.45;63.82
46756;BME280;32506;52.826;-1.192;2023-02-03T00:20:43;101877.47;;;9.43;63.78
46756;BME280;32506;52.826;-1.192;2023-02-03T00:23:10;101880.13;;;9.43;63.86
46756;BME280;32506;52.826;-1.192;2023-02-03T00:25:36;101851.78;;;9.42;63.77
46756;BME280;32506;52.826;-1.192;2023-02-03T00:28:02;101853.63;;;9.42;63.70
46756;BME280;32506;52.826;-1.192;2023-02-03T00:30:28;101856.31;;;9.42;64.12
46756;BME280;32506;52.826;-1.192;2023-02-03T00:32:53;101839.44;;;9.41;64.17
46756;BME280;32506;52.826;-1.192;2023-02-03T00:35:19;101841.28;;;9.40;63.92
46756;BME280;32506;52.826;-1.192;2023-02-03T00:37:50;101849.47;;;9.39;63.92
46756;BME280;32506;52.826;-1.192;2023-02-03T00:40:18;101835.28;;;9.38;64.03
46756;BME280;32506;52.826;-1.192;2023-02-03T00:42:43;101844.13;;;9.39;64.20
46756;BME280;32506;52.826;-1.192;2023-02-03T00:45:09;101836.13;;;9.39;63.77
46756;BME280;32506;52.826;-1.192;2023-02-03T00:47:34;101849.47;;;9.39;64.10
46756;BME280;32506;52.826;-1.192;2023-02-03T00:50:00;101862.81;;;9.39;63.90
46756;BME280;32506;52.826;-1.192;2023-02-03T00:52:25;101868.97;;;9.39;64.07
46756;BME280;32506;52.826;-1.192;2023-02-03T00:54:51;101868.16;;;9.39;64.02
46756;BME280;32506;52.826;-1.192;2023-02-03T00:57:16;101867.31;;;9.38;64.16
46756;BME280;32506;52.826;-1.192;2023-02-03T00:59:41;101870.16;;;9.37;64.21
46756;BME280;32506;52.826;-1.192;2023-02-03T01:02:07;101868.34;;;9.37;64.27
46756;BME280;32506;52.826;-1.192;2023-02-03T01:04:32;101870.16;;;9.37;64.29
46756;BME280;32506;52.826;-1.192;2023-02-03T01:06:58;101872.81;;;9.37;64.35
46756;BME280;32506;52.826;-1.192;2023-02-03T01:09:24;101872.00;;;9.36;64.39
46756;BME280;32506;52.826;-1.192;2023-02-03T01:11:50;101877.34;;;9.36;64.27
46756;BME280;32506;52.826;-1.192;2023-02-03T01:14:16;101872.00;;;9.36;64.47
46756;BME280;32506;52.826;-1.192;2023-02-03T01:16:41;101876.34;;;9.37;64.39
46756;BME280;32506;52.826;-1.192;2023-02-03T01:19:07;101861.16;;;9.38;64.36
46756;BME280;32506;52.826;-1.192;2023-02-03T01:21:33;101856.81;;;9.37;64.31
46756;BME280;32506;52.826;-1.192;2023-02-03T01:24:00;101860.47;;;9.36;64.46
46756;BME280;32506;52.826;-1.192;2023-02-03T01:26:27;101864.00;;;9.36;64.37
46756;BME280;32506;52.826;-1.192;2023-02-03T01:28:57;101858.66;;;9.36;64.50
46756;BME280;32506;52.826;-1.192;2023-02-03T01:31:35;101869.31;;;9.36;64.49
46756;BME280;32506;52.826;-1.192;2023-02-03T01:34:02;101866.66;;;9.36;64.47
46756;BME280;32506;52.826;-1.192;2023-02-03T01:36:29;101887.00;;;9.37;64.58
46756;BME280;32506;52.826;-1.192;2023-02-03T01:38:55;101886.16;;;9.37;64.32
46756;BME280;32506;52.826;-1.192;2023-02-03T01:41:25;101887.00;;;9.37;64.63
46756;BME280;32506;52.826;-1.192;2023-02-03T01:43:53;101889.69;;;9.37;64.76
46756;BME280;32506;52.826;-1.192;2023-02-03T01:46:43;101893.16;;;9.38;64.62
46756;BME280;32506;52.826;-1.192;2023-02-03T01:49:12;101891.31;;;9.38;64.67
46756;BME280;32506;52.826;-1.192;2023-02-03T01:51:41;101893.16;;;9.38;64.48
46756;BME280;32506;52.826;-1.192;2023-02-03T01:54:30;101900.00;;;9.40;64.38
46756;BME280;32506;52.826;-1.192;2023-02-03T01:57:11;101891.16;;;9.40;64.28
46756;BME280;32506;52.826;-1.192;2023-02-03T01:59:37;101884.97;;;9.39;64.37
46756;BME280;32506;52.826;-1.192;2023-02-03T02:02:03;101891.00;;;9.42;64.27
46756;BME280;32506;52.826;-1.192;2023-02-03T02:04:42;101889.97;;;9.43;64.41
46756;BME280;32506;52.826;-1.192;2023-02-03T02:07:13;101896.16;;;9.43;64.41
46756;BME280;32506;52.826;-1.192;2023-02-03T02:09:38;101894.31;;;9.44;64.21
46756;BME280;32506;52.826;-1.192;2023-02-03T02:12:04;101901.31;;;9.45;64.24
46756;BME280;32506;52.826;-1.192;2023-02-03T02:14:30;101904.81;;;9.45;64.21
46756;BME280;32506;52.826;-1.192;2023-02-03T02:23:24;101900.97;;;9.48;64.18
46756;BME280;32506;52.826;-1.192;2023-02-03T02:37:02;101888.94;;;9.52;64.46
46756;BME280;32506;52.826;-1.192;2023-02-03T02:40:01;101889.78;;;9.52;64.26
46756;BME280;32506;52.826;-1.192;2023-02-03T02:42:35;101883.59;;;9.52;64.28
46756;BME280;32506;52.826;-1.192;2023-02-03T02:45:09;101882.59;;;9.53;64.23
46756;BME280;32506;52.826;-1.192;2023-02-03T02:47:38;101882.59;;;9.53;64.26
46756;BME280;32506;52.826;-1.192;2023-02-03T02:50:09;101885.09;;;9.54;64.24
46756;BME280;32506;52.826;-1.192;2023-02-03T02:52:39;101869.91;;;9.55;64.16
46756;BME280;32506;52.826;-1.192;2023-02-03T02:55:19;101869.75;;;9.56;64.31
46756;BME280;32506;52.826;-1.192;2023-02-03T02:57:50;101866.22;;;9.56;64.36
46756;BME280;32506;52.826;-1.192;2023-02-03T03:00:17;101877.56;;;9.58;64.30
46756;BME280;32506;52.826;-1.192;2023-02-03T03:02:43;101874.06;;;9.57;64.17
46756;BME280;32506;52.826;-1.192;2023-02-03T03:05:09;101879.25;;;9.59;64.45
46756;BME280;32506;52.826;-1.192;2023-02-03T03:07:44;101893.41;;;9.60;64.30
46756;BME280;32506;52.826;-1.192;2023-02-03T03:10:15;101898.75;;;9.60;64.41
46756;BME280;32506;52.826;-1.192;2023-02-03T03:12:48;101902.09;;;9.62;64.34
46756;BME280;32506;52.826;-1.192;2023-02-03T03:15:21;101900.22;;;9.62;64.51
46756;BME280;32506;52.826;-1.192;2023-02-03T03:18:14;101915.25;;;9.63;64.44
46756;BME280;32506;52.826;-1.192;2023-02-03T03:20:43;101916.25;;;9.62;64.48
46756;BME280;32506;52.826;-1.192;2023-02-03T03:23:17;101923.25;;;9.63;64.18
46756;BME280;32506;52.826;-1.192;2023-02-03T03:26:15;101925.75;;;9.65;64.34
46756;BME280;32506;52.826;-1.192;2023-02-03T03:28:51;101919.41;;;9.66;64.51
46756;BME280;32506;52.826;-1.192;2023-02-03T03:31:19;101924.75;;;9.66;64.47
46756;BME280;32506;52.826;-1.192;2023-02-03T03:33:45;101921.06;;;9.67;64.40
46756;BME280;32506;52.826;-1.192;2023-02-03T03:36:25;101907.56;;;9.68;64.37
46756;BME280;32506;52.826;-1.192;2023-02-03T03:39:04;101930.72;;;9.68;64.66
46756;BME280;32506;52.826;-1.192;2023-02-03T03:41:56;101916.38;;;9.69;64.46
46756;BME280;32506;52.826;-1.192;2023-02-03T03:44:29;101908.38;;;9.69;64.53
46756;BME280;32506;52.826;-1.192;2023-02-03T03:47:04;101914.22;;;9.72;64.48
46756;BME280;32506;52.826;-1.192;2023-02-03T03:49:33;101919.88;;;9.69;64.63
46756;BME280;32506;52.826;-1.192;2023-02-03T03:52:03;101926.06;;;9.70;64.51
46756;BME280;32506;52.826;-1.192;2023-02-03T03:54:32;101928.56;;;9.71;64.54
46756;BME280;32506;52.826;-1.192;2023-02-03T03:57:02;101921.53;;;9.70;64.47
46756;BME280;32506;52.826;-1.192;2023-02-03T03:59:33;101935.56;;;9.72;64.60
46756;BME280;32506;52.826;-1.192;2023-02-03T04:02:01;101928.56;;;9.71;64.78
46756;BME280;32506;52.826;-1.192;2023-02-03T04:04:30;101928.38;;;9.73;64.58
46756;BME280;32506;52.826;-1.192;2023-02-03T04:06:56;101944.22;;;9.74;64.59
46756;BME280;32506;52.826;-1.192;2023-02-03T04:09:22;101949.38;;;9.76;64.55
46756;BME280;32506;52.826;-1.192;2023-02-03T04:11:48;101952.22;;;9.74;64.58
46756;BME280;32506;52.826;-1.192;2023-02-03T04:14:25;101950.22;;;9.77;64.42
46756;BME280;32506;52.826;-1.192;2023-02-03T04:16:51;101959.06;;;9.77;64.32
46756;BME280;32506;52.826;-1.192;2023-02-03T04:19:16;101959.91;;;9.78;64.51
46756;BME280;32506;52.826;-1.192;2023-02-03T04:21:42;101957.25;;;9.78;64.47
46756;BME280;32506;52.826;-1.192;2023-02-03T04:24:07;101960.56;;;9.80;64.66
46756;BME280;32506;52.826;-1.192;2023-02-03T04:26:33;101968.56;;;9.80;64.60
46756;BME280;32506;52.826;-1.192;2023-02-03T04:28:58;101962.22;;;9.81;64.49
46756;BME280;32506;52.826;-1.192;2023-02-03T04:31:23;101962.22;;;9.81;64.52
46756;BME280;32506;52.826;-1.192;2023-02-03T04:33:49;101962.88;;;9.83;64.72
46756;BME280;32506;52.826;-1.192;2023-02-03T04:36:14;101967.38;;;9.82;64.18
46756;BME280;32506;52.826;-1.192;2023-02-03T04:38:40;101960.06;;;9.84;64.54
46756;BME280;32506;52.826;-1.192;2023-02-03T04:41:05;101967.22;;;9.84;64.82
46756;BME280;32506;52.826;-1.192;2023-02-03T04:43:30;101970.72;;;9.84;64.46
46756;BME280;32506;52.826;-1.192;2023-02-03T04:45:58;101982.06;;;9.86;64.86
46756;BME280;32506;52.826;-1.192;2023-02-03T04:48:24;101982.06;;;9.86;64.64
46756;BME280;32506;52.826;-1.192;2023-02-03T04:50:50;101992.56;;;9.88;64.33
46756;BME280;32506;52.826;-1.192;2023-02-03T04:53:15;101989.88;;;9.88;64.66
46756;BME280;32506;52.826;-1.192;2023-02-03T04:55:41;101996.91;;;9.89;64.73
46756;BME280;32506;52.826;-1.192;2023-02-03T04:58:10;101992.38;;;9.89;64.63
46756;BME280;32506;52.826;-1.192;2023-02-03T05:00:35;101995.72;;;9.91;64.74
46756;BME280;32506;52.826;-1.192;2023-02-03T05:03:00;102003.72;;;9.91;64.82
46756;BME280;32506;52.826;-1.192;2023-02-03T05:05:26;102008.06;;;9.93;64.87
46756;BME280;32506;52.826;-1.192;2023-02-03T05:07:51;102003.56;;;9.93;65.06
46756;BME280;32506;52.826;-1.192;2023-02-03T05:10:17;102007.03;;;9.94;64.81
46756;BME280;32506;52.826;-1.192;2023-02-03T05:12:42;102002.56;;;9.94;65.05
46756;BME280;32506;52.826;-1.192;2023-02-03T05:15:08;102001.56;;;9.95;64.87
46756;BME280;32506;52.826;-1.192;2023-02-03T05:17:33;102006.91;;;9.95;64.91
46756;BME280;32506;52.826;-1.192;2023-02-03T05:20:03;102015.72;;;9.96;64.94
46756;BME280;32506;52.826;-1.192;2023-02-03T05:22:29;102023.56;;;9.97;64.83
46756;BME280;32506;52.826;-1.192;2023-02-03T05:24:54;102017.22;;;9.98;64.91
46756;BME280;32506;52.826;-1.192;2023-02-03T05:27:20;102026.91;;;9.99;64.82
46756;BME280;32506;52.826;-1.192;2023-02-03T05:29:45;102033.06;;;10.00;64.86
46756;BME280;32506;52.826;-1.192;2023-02-03T05:32:11;102034.75;;;10.01;64.95
46756;BME280;32506;52.826;-1.192;2023-02-03T05:34:36;102036.56;;;10.00;64.79
46756;BME280;32506;52.826;-1.192;2023-02-03T05:37:01;102031.22;;;10.00;64.70
46756;BME280;32506;52.826;-1.192;2023-02-03T05:39:28;102040.72;;;10.03;65.00
46756;BME280;32506;52.826;-1.192;2023-02-03T05:41:53;102037.25;;;10.02;64.91
46756;BME280;32506;52.826;-1.192;2023-02-03T05:44:20;102051.41;;;10.03;64.87
46756;BME280;32506;52.826;-1.192;2023-02-03T05:46:46;102043.25;;;10.04;64.93
46756;BME280;32506;52.826;-1.192;2023-02-03T05:49:12;102044.06;;;10.05;64.84
46756;BME280;32506;52.826;-1.192;2023-02-03T05:51:38;102040.41;;;10.06;65.00
46756;BME280;32506;52.826;-1.192;2023-02-03T05:54:04;102035.88;;;10.06;65.09
46756;BME280;32506;52.826;-1.192;2023-02-03T05:56:30;102037.72;;;10.06;64.88
46756;BME280;32506;52.826;-1.192;2023-02-03T05:58:55;102036.72;;;10.07;64.83
46756;BME280;32506;52.826;-1.192;2023-02-03T06:01:21;102034.72;;;10.09;64.81
46756;BME280;32506;52.826;-1.192;2023-02-03T06:03:47;102044.56;;;10.08;65.25
46756;BME280;32506;52.826;-1.192;2023-02-03T06:06:13;102041.06;;;10.08;65.05
46756;BME280;32506;52.826;-1.192;2023-02-03T06:08:38;102056.06;;;10.09;64.87
46756;BME280;32506;52.826;-1.192;2023-02-03T06:11:04;102048.06;;;10.09;64.95
46756;BME280;32506;52.826;-1.192;2023-02-03T06:13:30;102048.06;;;10.09;65.33
46756;BME280;32506;52.826;-1.192;2023-02-03T06:15:55;102046.38;;;10.08;65.09
46756;BME280;32506;52.826;-1.192;2023-02-03T06:18:21;102050.75;;;10.09;64.97
46756;BME280;32506;52.826;-1.192;2023-02-03T06:20:47;102051.75;;;10.08;65.06
46756;BME280;32506;52.826;-1.192;2023-02-03T06:23:12;102049.06;;;10.08;65.00
46756;BME280;32506;52.826;-1.192;2023-02-03T06:25:38;102055.25;;;10.08;65.12
46756;BME280;32506;52.826;-1.192;2023-02-03T06:28:03;102050.91;;;10.07;64.99
46756;BME280;32506;52.826;-1.192;2023-02-03T06:30:29;102053.59;;;10.07;65.03
46756;BME280;32506;52.826;-1.192;2023-02-03T06:32:54;102053.59;;;10.07;64.98
46756;BME280;32506;52.826;-1.192;2023-02-03T06:35:20;102043.91;;;10.06;64.83
46756;BME280;32506;52.826;-1.192;2023-02-03T06:37:45;102039.56;;;10.05;65.03
46756;BME280;32506;52.826;-1.192;2023-02-03T06:40:11;102046.75;;;10.05;64.90
46756;BME280;32506;52.826;-1.192;2023-02-03T06:42:37;102046.75;;;10.05;64.86
46756;BME280;32506;52.826;-1.192;2023-02-03T06:45:03;102059.28;;;10.04;64.84
46756;BME280;32506;52.826;-1.192;2023-02-03T06:47:28;102047.94;;;10.02;64.97
46756;BME280;32506;52.826;-1.192;2023-02-03T06:49:54;102056.13;;;10.01;64.92
46756;BME280;32506;52.826;-1.192;2023-02-03T06:52:19;102052.78;;;9.99;64.93
46756;BME280;32506;52.826;-1.192;2023-02-03T06:54:45;102060.78;;;9.99;65.07
46756;BME280;32506;52.826;-1.192;2023-02-03T06:57:10;102053.94;;;9.96;64.91
46756;BME280;32506;52.826;-1.192;2023-02-03T06:59:36;102055.78;;;9.96;64.91
46756;BME280;32506;52.826;-1.192;2023-02-03T07:02:01;102054.31;;;9.93;64.91
46756;BME280;32506;52.826;-1.192;2023-02-03T07:04:27;102055.47;;;9.90;64.79
46756;BME280;32506;52.826;-1.192;2023-02-03T07:06:55;102063.50;;;9.90;64.88
46756;BME280;32506;52.826;-1.192;2023-02-03T07:09:20;102064.66;;;9.88;64.71
46756;BME280;32506;52.826;-1.192;2023-02-03T07:11:46;102071.84;;;9.87;64.69
46756;BME280;32506;52.826;-1.192;2023-02-03T07:14:11;102085.56;;;9.84;64.65
46756;BME280;32506;52.826;-1.192;2023-02-03T07:16:37;102075.88;;;9.83;64.85
46756;BME280;32506;52.826;-1.192;2023-02-03T07:19:05;102078.72;;;9.82;64.83
46756;BME280;32506;52.826;-1.192;2023-02-03T07:21:30;102077.22;;;9.79;64.85
46756;BME280;32506;52.826;-1.192;2023-02-03T07:23:56;102070.22;;;9.78;64.82
46756;BME280;32506;52.826;-1.192;2023-02-03T07:26:21;102071.38;;;9.76;64.81
46756;BME280;32506;52.826;-1.192;2023-02-03T07:28:48;102073.22;;;9.75;64.65
46756;BME280;32506;52.826;-1.192;2023-02-03T07:31:14;102080.38;;;9.74;64.82
46756;BME280;32506;52.826;-1.192;2023-02-03T07:33:39;102069.06;;;9.72;64.87
46756;BME280;32506;52.826;-1.192;2023-02-03T07:36:06;102074.41;;;9.72;64.75
46756;BME280;32506;52.826;-1.192;2023-02-03T07:38:32;102074.56;;;9.71;64.68
46756;BME280;32506;52.826;-1.192;2023-02-03T07:40:57;102073.72;;;9.70;65.07
46756;BME280;32506;52.826;-1.192;2023-02-03T07:43:23;102070.22;;;9.70;64.87
46756;BME280;32506;52.826;-1.192;2023-02-03T07:45:48;102064.22;;;9.68;65.10
46756;BME280;32506;52.826;-1.192;2023-02-03T07:48:14;102060.53;;;9.69;64.82
46756;BME280;32506;52.826;-1.192;2023-02-03T07:50:40;102066.88;;;9.68;65.09
46756;BME280;32506;52.826;-1.192;2023-02-03T07:53:06;102070.53;;;9.67;65.02
46756;BME280;32506;52.826;-1.192;2023-02-03T07:55:33;102070.72;;;9.65;65.11
46756;BME280;32506;52.826;-1.192;2023-02-03T07:57:59;102082.44;;;9.64;64.85
46756;BME280;32506;52.826;-1.192;2023-02-03T08:00:24;102087.91;;;9.63;65.00
46756;BME280;32506;52.826;-1.192;2023-02-03T08:02:51;102090.59;;;9.63;64.99
46756;BME280;32506;52.826;-1.192;2023-02-03T08:05:17;102095.09;;;9.62;64.95
46756;BME280;32506;52.826;-1.192;2023-02-03T08:07:43;102096.09;;;9.61;65.15
46756;BME280;32506;52.826;-1.192;2023-02-03T08:10:11;102091.59;;;9.62;65.17
46756;BME280;32506;52.826;-1.192;2023-02-03T08:12:37;102098.75;;;9.61;65.31
46756;BME280;32506;52.826;-1.192;2023-02-03T08:15:03;102091.75;;;9.60;65.38
46756;BME280;32506;52.826;-1.192;2023-02-03T08:17:29;102106.78;;;9.61;65.07
46756;BME280;32506;52.826;-1.192;2023-02-03T08:19:54;102109.63;;;9.60;65.32
46756;BME280;32506;52.826;-1.192;2023-02-03T08:22:20;102127.47;;;9.59;65.36
46756;BME280;32506;52.826;-1.192;2023-02-03T08:24:45;102138.97;;;9.60;65.23
46756;BME280;32506;52.826;-1.192;2023-02-03T08:27:12;102159.50;;;9.59;65.33
46756;BME280;32506;52.826;-1.192;2023-02-03T08:29:38;102175.34;;;9.61;65.25
46756;BME280;32506;52.826;-1.192;2023-02-03T08:32:04;102188.69;;;9.61;65.55
46756;BME280;32506;52.826;-1.192;2023-02-03T08:34:29;102197.53;;;9.61;65.42
46756;BME280;32506;52.826;-1.192;2023-02-03T08:36:55;102202.88;;;9.61;65.44
46756;BME280;32506;52.826;-1.192;2023-02-03T08:39:20;102202.88;;;9.61;65.41
46756;BME280;32506;52.826;-1.192;2023-02-03T08:41:46;102198.38;;;9.62;65.39
46756;BME280;32506;52.826;-1.192;2023-02-03T08:44:12;102211.72;;;9.62;65.38
46756;BME280;32506;52.826;-1.192;2023-02-03T08:46:38;102216.91;;;9.63;65.33
46756;BME280;32506;52.826;-1.192;2023-02-03T08:49:09;102217.72;;;9.64;65.43
46756;BME280;32506;52.826;-1.192;2023-02-03T08:51:34;102227.56;;;9.63;65.26
46756;BME280;32506;52.826;-1.192;2023-02-03T08:54:00;102219.41;;;9.65;65.32
46756;BME280;32506;52.826;-1.192;2023-02-03T08:56:26;102218.41;;;9.66;65.28
46756;BME280;32506;52.826;-1.192;2023-02-03T08:58:51;102212.03;;;9.67;65.51
46756;BME280;32506;52.826;-1.192;2023-02-03T09:01:17;102205.72;;;9.68;65.35
46756;BME280;32506;52.826;-1.192;2023-02-03T09:03:43;102199.38;;;9.69;65.25
46756;BME280;32506;52.826;-1.192;2023-02-03T09:06:09;102202.72;;;9.71;65.35
46756;BME280;32506;52.826;-1.192;2023-02-03T09:08:44;102194.53;;;9.72;65.36
46756;BME280;32506;52.826;-1.192;2023-02-03T09:11:12;102196.19;;;9.73;65.18
46756;BME280;32506;52.826;-1.192;2023-02-03T09:13:39;102207.56;;;9.76;64.92
46756;BME280;32506;52.826;-1.192;2023-02-03T09:16:06;102210.03;;;9.77;65.13
46756;BME280;32506;52.826;-1.192;2023-02-03T09:18:31;102216.88;;;9.80;65.21
46756;BME280;32506;52.826;-1.192;2023-02-03T09:21:01;102225.59;;;9.82;65.04
46756;BME280;32506;52.826;-1.192;2023-02-03T09:23:27;102236.91;;;9.84;65.25
46756;BME280;32506;52.826;-1.192;2023-02-03T09:25:52;102246.44;;;9.86;65.12
46756;BME280;32506;52.826;-1.192;2023-02-03T09:28:18;102247.13;;;9.88;65.23
46756;BME280;32506;52.826;-1.192;2023-02-03T09:30:43;102255.78;;;9.90;65.55
46756;BME280;32506;52.826;-1.192;2023-02-03T09:33:09;102257.28;;;9.93;65.41
46756;BME280;32506;52.826;-1.192;2023-02-03T09:35:34;102252.44;;;9.97;65.39
46756;BME280;32506;52.826;-1.192;2023-02-03T09:38:00;102261.13;;;9.99;65.46
46756;BME280;32506;52.826;-1.192;2023-02-03T09:40:33;102270.47;;;10.03;65.80
46756;BME280;32506;52.826;-1.192;2023-02-03T09:43:36;102269.13;;;10.07;65.60
46756;BME280;32506;52.826;-1.192;2023-02-03T09:46:12;102277.81;;;10.09;65.93
46756;BME280;32506;52.826;-1.192;2023-02-03T09:48:45;102286.34;;;10.13;65.92
46756;BME280;32506;52.826;-1.192;2023-02-03T09:54:12;102304.03;;;10.22;66.28
46756;BME280;32506;52.826;-1.192;2023-02-03T09:56:41;102300.84;;;10.27;66.27
46756;BME280;32506;52.826;-1.192;2023-02-03T09:59:14;102300.31;;;10.31;66.47
46756;BME280;32506;52.826;-1.192;2023-02-03T10:04:30;102308.84;;;10.43;66.74
46756;BME280;32506;52.826;-1.192;2023-02-03T10:07:14;102308.38;;;10.48;66.69
46756;BME280;32506;52.826;-1.192;2023-02-03T10:12:31;102321.19;;;10.61;67.34
46756;BME280;32506;52.826;-1.192;2023-02-03T10:17:32;102321.50;;;10.74;66.83
46756;BME280;32506;52.826;-1.192;2023-02-03T10:20:04;102325.16;;;10.81;67.30
46756;BME280;32506;52.826;-1.192;2023-02-03T10:22:43;102339.34;;;10.90;67.39
46756;BME280;32506;52.826;-1.192;2023-02-03T10:27:38;102349.50;;;11.03;67.28
46756;BME280;32506;52.826;-1.192;2023-02-03T10:30:18;102351.34;;;11.11;67.59
46756;BME280;32506;52.826;-1.192;2023-02-03T10:32:43;102352.47;;;11.16;67.46
46756;BME280;32506;52.826;-1.192;2023-02-03T10:35:13;102356.28;;;11.22;67.33
46756;BME280;32506;52.826;-1.192;2023-02-03T10:37:43;102362.97;;;11.26;67.28
46756;BME280;32506;52.826;-1.192;2023-02-03T10:40:14;102362.47;;;11.31;67.37
46756;BME280;32506;52.826;-1.192;2023-02-03T10:42:45;102368.28;;;11.34;67.46
46756;BME280;32506;52.826;-1.192;2023-02-03T10:45:35;102373.31;;;11.37;67.46
46756;BME280;32506;52.826;-1.192;2023-02-03T10:48:03;102375.63;;;11.40;67.35
46756;BME280;32506;52.826;-1.192;2023-02-03T10:50:29;102375.25;;;11.44;67.26
46756;BME280;32506;52.826;-1.192;2023-02-03T10:53:25;102376.41;;;11.49;67.22
46756;BME280;32506;52.826;-1.192;2023-02-03T10:56:14;102382.25;;;11.53;67.35
46756;BME280;32506;52.826;-1.192;2023-02-03T10:58:56;102377.22;;;11.58;67.49
46756;BME280;32506;52.826;-1.192;2023-02-03T11:01:27;102382.22;;;11.61;67.52
46756;BME280;32506;52.826;-1.192;2023-02-03T11:04:34;102389.38;;;11.69;67.72
46756;BME280;32506;52.826;-1.192;2023-02-03T11:07:02;102385.31;;;11.73;67.75
46756;BME280;32506;52.826;-1.192;2023-02-03T11:09:38;102393.50;;;11.80;67.68
46756;BME280;32506;52.826;-1.192;2023-02-03T11:12:12;102402.66;;;11.85;67.51
46756;BME280;32506;52.826;-1.192;2023-02-03T11:14:41;102399.28;;;11.91;67.64
46756;BME280;32506;52.826;-1.192;2023-02-03T11:17:14;102393.59;;;11.95;67.70
46756;BME280;32506;52.826;-1.192;2023-02-03T11:19:42;102394.91;;;11.99;67.40
46756;BME280;32506;52.826;-1.192;2023-02-03T11:22:09;102387.34;;;12.02;67.94
46756;BME280;32506;52.826;-1.192;2023-02-03T11:24:38;102375.75;;;12.10;67.87
46756;BME280;32506;52.826;-1.192;2023-02-03T11:27:15;102372.34;;;12.16;67.50
46756;BME280;32506;52.826;-1.192;2023-02-03T11:29:45;102378.81;;;12.22;67.31
46756;BME280;32506;52.826;-1.192;2023-02-03T11:32:17;102374.59;;;12.28;67.90
46756;BME280;32506;52.826;-1.192;2023-02-03T11:34:59;102387.94;;;12.36;67.95
46756;BME280;32506;52.826;-1.192;2023-02-03T11:37:27;102384.69;;;12.40;67.56
46756;BME280;32506;52.826;-1.192;2023-02-03T11:42:39;102401.00;;;12.54;67.84
46756;BME280;32506;52.826;-1.192;2023-02-03T11:45:27;102401.97;;;12.61;67.67
46756;BME280;32506;52.826;-1.192;2023-02-03T12:04:57;102396.91;;;12.81;67.52
46756;BME280;32506;52.826;-1.192;2023-02-03T12:21:11;102426.25;;;12.98;67.27
46756;BME280;32506;52.826;-1.192;2023-02-03T12:26:28;102418.13;;;13.06;67.26
46756;BME280;32506;52.826;-1.192;2023-02-03T12:29:07;102414.03;;;13.10;67.50
46756;BME280;32506;52.826;-1.192;2023-02-03T12:31:38;102409.97;;;13.14;67.51
46756;BME280;32506;52.826;-1.192;2023-02-03T12:34:24;102412.28;;;13.17;67.11
46756;BME280;32506;52.826;-1.192;2023-02-03T12:37:07;102401.81;;;13.22;67.23
46756;BME280;32506;52.826;-1.192;2023-02-03T12:47:33;102409.53;;;13.40;66.86
46756;BME280;32506;52.826;-1.192;2023-02-03T12:50:47;102409.44;;;13.49;67.18
46756;BME280;32506;52.826;-1.192;2023-02-03T12:52:55;102416.44;;;13.65;67.04
46756;BME280;32506;52.826;-1.192;2023-02-03T12:55:33;102416.22;;;13.81;66.91
46756;BME280;32506;52.826;-1.192;2023-02-03T12:58:04;102415.28;;;13.89;66.88
46756;BME280;32506;52.826;-1.192;2023-02-03T13:00:56;102414.50;;;13.95;66.71
46756;BME280;32506;52.826;-1.192;2023-02-03T13:11:19;102411.50;;;14.26;66.70
46756;BME280;32506;52.826;-1.192;2023-02-03T13:13:53;102400.41;;;14.36;66.83
46756;BME280;32506;52.826;-1.192;2023-02-03T13:16:31;102415.19;;;14.47;66.43
46756;BME280;32506;52.826;-1.192;2023-02-03T13:19:02;102412.81;;;14.59;66.39
46756;BME280;32506;52.826;-1.192;2023-02-03T13:21:29;102406.09;;;14.70;66.25
46756;BME280;32506;52.826;-1.192;2023-02-03T13:23:55;102417.78;;;14.84;65.89
46756;BME280;32506;52.826;-1.192;2023-02-03T13:42:29;102404.28;;;16.69;62.75
46756;BME280;32506;52.826;-1.192;2023-02-03T13:47:46;102404.06;;;16.64;62.83
46756;BME280;32506;52.826;-1.192;2023-02-03T13:50:27;102410.28;;;16.58;62.66
46756;BME280;32506;52.826;-1.192;2023-02-03T13:55:38;102418.38;;;16.44;62.55
46756;BME280;32506;52.826;-1.192;2023-02-03T13:58:06;102422.13;;;16.37;62.67
46756;BME280;32506;52.826;-1.192;2023-02-03T14:03:16;102433.31;;;16.34;61.86
46756;BME280;32506;52.826;-1.192;2023-02-03T14:05:45;102439.16;;;16.31;62.37
46756;BME280;32506;52.826;-1.192;2023-02-03T14:16:50;102439.53;;;16.01;62.20
46756;BME280;32506;52.826;-1.192;2023-02-03T14:21:59;102441.34;;;15.93;61.95
46756;BME280;32506;52.826;-1.192;2023-02-03T14:24:38;102428.91;;;15.92;62.04
46756;BME280;32506;52.826;-1.192;2023-02-03T14:27:16;102436.16;;;15.92;61.76
46756;BME280;32506;52.826;-1.192;2023-02-03T14:29:42;102437.19;;;15.91;61.79
46756;BME280;32506;52.826;-1.192;2023-02-03T14:32:10;102438.22;;;15.90;61.55
46756;BME280;32506;52.826;-1.192;2023-02-03T14:34:47;102433.25;;;15.87;61.26
46756;BME280;32506;52.826;-1.192;2023-02-03T14:37:14;102438.22;;;15.83;61.66
46756;BME280;32506;52.826;-1.192;2023-02-03T14:45:47;102428.97;;;15.64;61.33
46756;BME280;32506;52.826;-1.192;2023-02-03T14:48:50;102433.53;;;15.57;61.19
46756;BME280;32506;52.826;-1.192;2023-02-03T15:00:07;102437.75;;;15.31;61.05
46756;BME280;32506;52.826;-1.192;2023-02-03T15:11:32;102452.53;;;15.07;61.13
46756;BME280;32506;52.826;-1.192;2023-02-03T15:16:43;102458.44;;;14.96;61.21
46756;BME280;32506;52.826;-1.192;2023-02-03T15:19:17;102460.72;;;14.92;61.27
46756;BME280;32506;52.826;-1.192;2023-02-03T15:21:43;102457.78;;;14.87;61.45